createdAt,value
2022-08-10T00:00:25.219Z,74.20
2022-08-10T00:01:25.206Z,74.58
2022-08-10T00:02:25.062Z,74.20
2022-08-10T00:03:25.010Z,74.40
2022-08-10T00:04:24.914Z,74.30
2022-08-10T00:05:24.837Z,73.91
2022-08-10T00:06:24.760Z,74.58
2022-08-10T00:07:24.682Z,75.54
2022-08-10T00:08:24.609Z,75.35
2022-08-10T00:09:24.530Z,75.26
2022-08-10T00:10:24.455Z,74.97
2022-08-10T00:11:24.378Z,76.21
2022-08-10T00:12:53.258Z,76.12
2022-08-10T00:13:24.228Z,75.54
2022-08-10T00:14:24.148Z,75.07
2022-08-10T00:15:51.924Z,75.45
2022-08-10T00:16:23.995Z,75.45
2022-08-10T00:17:23.916Z,75.16
2022-08-10T00:18:31.499Z,74.68
2022-08-10T00:19:23.766Z,75.26
2022-08-10T00:20:23.689Z,75.54
2022-08-10T00:21:23.613Z,75.83
2022-08-10T00:22:23.539Z,75.07
2022-08-10T00:23:23.458Z,75.54
2022-08-10T00:24:23.415Z,75.54
2022-08-10T00:25:23.308Z,75.26
2022-08-10T00:26:23.230Z,75.73
2022-08-10T00:27:52.570Z,75.93
2022-08-10T00:28:23.076Z,75.45
2022-08-10T00:29:22.998Z,74.77
2022-08-10T00:30:22.927Z,74.11
2022-08-10T00:31:22.847Z,73.59
2022-08-10T00:32:22.770Z,74.65
2022-08-10T00:33:22.694Z,75.37
2022-08-10T00:34:22.619Z,75.56
2022-08-10T00:35:22.545Z,76.52
2022-08-10T00:36:22.466Z,77.00
2022-08-10T00:37:22.389Z,77.61
2022-08-10T00:38:22.311Z,77.80
2022-08-10T00:39:22.313Z,77.90
2022-08-10T00:40:35.238Z,77.42
2022-08-10T00:41:22.082Z,77.70
2022-08-10T00:42:22.008Z,77.51
2022-08-10T00:43:23.599Z,77.99
2022-08-10T00:44:21.852Z,78.09
2022-08-10T00:45:21.776Z,77.13
2022-08-10T00:46:21.705Z,77.80
2022-08-10T00:47:37.429Z,77.42
2022-08-10T00:48:21.545Z,77.04
2022-08-10T00:49:21.469Z,76.37
2022-08-10T00:50:21.390Z,75.56
2022-08-10T00:51:21.315Z,75.18
2022-08-10T00:52:21.253Z,75.37
2022-08-10T00:53:21.163Z,75.81
2022-08-10T00:54:24.367Z,76.86
2022-08-10T00:55:21.006Z,77.44
2022-08-10T00:57:15.244Z,78.11
2022-08-10T00:57:20.855Z,79.44
2022-08-10T00:58:20.780Z,78.87
2022-08-10T00:59:20.703Z,80.11
2022-08-10T01:00:20.625Z,80.69
2022-08-10T01:02:07.514Z,80.30
2022-08-10T01:02:20.491Z,79.54
2022-08-10T01:04:36.575Z,79.93
2022-08-10T01:04:40.206Z,79.93
2022-08-10T01:05:20.598Z,79.64
2022-08-10T01:06:20.172Z,80.16
2022-08-10T01:07:20.086Z,80.06
2022-08-10T01:08:20.010Z,79.29
2022-08-10T01:09:19.936Z,79.20
2022-08-10T01:10:19.859Z,79.39
2022-08-10T01:12:37.812Z,78.91
2022-08-10T01:12:39.169Z,79.49
2022-08-10T01:13:19.626Z,79.20
2022-08-10T01:14:19.551Z,79.49
2022-08-10T01:15:19.477Z,79.20
2022-08-10T01:16:19.395Z,78.34
2022-08-10T01:17:19.315Z,78.14
2022-08-10T01:18:19.238Z,78.91
2022-08-10T01:19:19.160Z,78.91
2022-08-10T01:20:27.489Z,79.29
2022-08-10T01:21:19.010Z,79.49
2022-08-10T01:22:18.933Z,79.00
2022-08-10T01:23:18.858Z,78.81
2022-08-10T01:24:24.982Z,79.16
2022-08-10T01:25:18.701Z,78.87
2022-08-10T01:26:30.805Z,79.16
2022-08-10T01:27:18.548Z,78.78
2022-08-10T01:28:18.470Z,79.44
2022-08-10T01:29:18.395Z,80.02
2022-08-10T01:30:18.318Z,79.35
2022-08-10T01:31:18.243Z,79.06
2022-08-10T01:32:18.161Z,78.68
2022-08-10T01:33:18.085Z,79.83
2022-08-10T01:34:18.172Z,80.69
2022-08-10T01:35:17.940Z,80.69
2022-08-10T01:36:17.852Z,80.98
2022-08-10T01:37:17.774Z,81.36
2022-08-10T01:38:17.705Z,81.07
2022-08-10T01:39:17.673Z,80.02
2022-08-10T01:40:17.548Z,79.25
2022-08-10T01:41:17.467Z,80.40
2022-08-10T01:42:17.389Z,80.98
2022-08-10T01:43:17.316Z,79.73
2022-08-10T01:44:20.033Z,78.64
2022-08-10T01:45:17.156Z,79.50
2022-08-10T01:46:17.079Z,80.36
2022-08-10T01:47:21.685Z,80.27
2022-08-10T01:48:16.998Z,81.60
2022-08-10T01:49:16.851Z,82.65
2022-08-10T01:50:16.774Z,82.46
2022-08-10T01:51:16.698Z,82.75
2022-08-10T01:52:18.203Z,82.75
2022-08-10T01:53:16.541Z,81.51
2022-08-10T01:54:16.463Z,82.37
2022-08-10T01:55:16.382Z,82.56
2022-08-10T01:56:16.312Z,82.08
2022-08-10T01:57:16.233Z,82.56
2022-08-10T01:58:16.156Z,82.08
2022-08-10T01:59:16.074Z,83.04
2022-08-10T02:00:16.001Z,83.13
2022-08-10T02:01:17.102Z,81.13
2022-08-10T02:02:15.852Z,81.79
2022-08-10T02:03:15.765Z,82.08
2022-08-10T02:04:15.691Z,82.37
2022-08-10T02:05:15.613Z,81.89
2022-08-10T02:06:15.537Z,81.99
2022-08-10T02:07:15.455Z,82.56
2022-08-10T02:08:15.381Z,82.52
2022-08-10T02:09:15.315Z,82.94
2022-08-10T02:10:15.223Z,82.75
2022-08-10T02:11:15.151Z,81.09
2022-08-10T02:12:15.072Z,81.95
2022-08-10T02:13:14.994Z,82.81
2022-08-10T02:14:14.916Z,83.09
2022-08-10T02:15:14.835Z,83.57
2022-08-10T02:16:14.760Z,82.71
2022-08-10T02:17:57.820Z,82.61
2022-08-10T02:18:14.608Z,82.23
2022-08-10T02:19:14.524Z,82.90
2022-08-10T02:20:14.452Z,82.81
2022-08-10T02:21:14.375Z,82.90
2022-08-10T02:22:36.275Z,83.57
2022-08-10T02:23:14.218Z,84.05
2022-08-10T02:24:14.142Z,83.00
2022-08-10T02:25:40.070Z,82.90
2022-08-10T02:26:13.992Z,84.14
2022-08-10T02:27:13.905Z,83.38
2022-08-10T02:28:30.006Z,82.61
2022-08-10T02:29:13.751Z,82.90
2022-08-10T02:30:13.676Z,83.18
2022-08-10T02:31:13.598Z,82.57
2022-08-10T02:32:13.525Z,82.29
2022-08-10T02:33:13.443Z,83.05
2022-08-10T02:34:13.366Z,83.05
2022-08-10T02:35:22.664Z,83.62
2022-08-10T02:36:13.211Z,82.57
2022-08-10T02:37:13.528Z,83.24
2022-08-10T02:38:13.054Z,84.48
2022-08-10T02:39:13.051Z,84.77
2022-08-10T02:45:02.152Z,82.09
2022-08-10T02:45:13.653Z,82.86
2022-08-10T02:45:17.610Z,83.62
2022-08-10T02:45:23.253Z,82.53
2022-08-10T02:45:27.903Z,82.00
2022-08-10T02:45:29.609Z,83.11
2022-08-10T02:46:12.432Z,82.91
2022-08-10T02:47:12.353Z,83.87
2022-08-10T02:48:12.277Z,84.72
2022-08-10T02:49:12.198Z,86.16
2022-08-10T02:50:12.123Z,85.01
2022-08-10T02:51:12.050Z,85.05
2022-08-10T02:52:11.970Z,85.34
2022-08-10T02:53:54.531Z,86.01
2022-08-10T02:54:11.811Z,84.96
2022-08-10T02:55:17.520Z,85.25
2022-08-10T02:56:11.663Z,85.72
2022-08-10T02:57:11.576Z,84.77
2022-08-10T02:58:16.624Z,84.20
2022-08-10T02:59:11.420Z,85.25
2022-08-10T03:00:11.343Z,84.67
2022-08-10T03:01:11.314Z,83.62
2022-08-10T03:02:11.184Z,83.81
2022-08-10T03:03:11.107Z,83.72
2022-08-10T03:04:11.031Z,82.19
2022-08-10T03:05:10.954Z,83.14
2022-08-10T03:06:10.878Z,84.67
2022-08-10T03:07:10.795Z,86.30
2022-08-10T03:08:10.720Z,85.82
2022-08-10T03:09:10.641Z,85.53
2022-08-10T03:10:14.382Z,84.29
2022-08-10T03:11:10.483Z,84.48
2022-08-10T03:12:35.394Z,85.05
2022-08-10T03:13:10.337Z,86.20
2022-08-10T03:14:10.253Z,86.10
2022-08-10T03:15:10.172Z,84.20
2022-08-10T03:16:10.095Z,83.62
2022-08-10T03:17:10.015Z,84.67
2022-08-10T03:18:09.942Z,84.67
2022-08-10T03:20:35.313Z,84.96
2022-08-10T03:20:36.464Z,85.15
2022-08-10T03:21:11.955Z,84.67
2022-08-10T03:22:09.627Z,84.00
2022-08-10T03:23:09.551Z,83.91
2022-08-10T03:24:30.199Z,84.72
2022-08-10T03:25:09.391Z,85.44
2022-08-10T03:26:09.315Z,85.30
2022-08-10T03:27:09.237Z,85.44
2022-08-10T03:28:09.156Z,85.01
2022-08-10T03:29:09.079Z,85.25
2022-08-10T03:30:28.587Z,84.86
2022-08-10T03:31:08.924Z,84.34
2022-08-10T03:32:08.846Z,85.15
2022-08-10T03:33:08.768Z,84.92
2022-08-10T03:34:22.099Z,86.25
2022-08-10T03:35:08.607Z,86.39
2022-08-10T03:36:42.054Z,85.49
2022-08-10T03:37:08.456Z,85.21
2022-08-10T03:38:08.376Z,84.16
2022-08-10T03:39:08.310Z,84.25
2022-08-10T03:40:08.219Z,84.06
2022-08-10T03:41:08.143Z,84.06
2022-08-10T03:42:08.062Z,84.53
2022-08-10T03:43:07.987Z,85.58
2022-08-10T03:44:07.908Z,86.82
2022-08-10T03:45:07.828Z,87.21
2022-08-10T03:46:07.751Z,88.26
2022-08-10T03:47:15.920Z,88.35
2022-08-10T03:48:07.598Z,87.97
2022-08-10T03:49:07.513Z,88.45
2022-08-10T03:50:28.101Z,86.63
2022-08-10T03:51:07.360Z,85.30
2022-08-10T03:52:07.285Z,85.77
2022-08-10T03:53:07.206Z,86.35
2022-08-10T03:54:07.612Z,86.25
2022-08-10T03:55:07.048Z,86.35
2022-08-10T03:56:28.529Z,85.87
2022-08-10T03:57:06.892Z,87.21
2022-08-10T03:58:06.816Z,87.97
2022-08-10T03:59:06.733Z,89.02
2022-08-10T04:00:06.656Z,89.21
2022-08-10T04:01:06.627Z,89.50
2022-08-10T04:02:44.991Z,89.40
2022-08-10T04:03:06.421Z,88.73
2022-08-10T04:04:10.836Z,87.73
2022-08-10T04:05:06.264Z,88.26
2022-08-10T04:06:06.185Z,87.82
2022-08-10T04:07:06.108Z,85.21
2022-08-10T04:08:06.028Z,84.63
2022-08-10T04:09:05.953Z,86.06
2022-08-10T04:10:05.872Z,87.30
2022-08-10T04:11:05.798Z,87.40
2022-08-10T04:12:05.714Z,87.21
2022-08-10T04:13:05.639Z,88.64
2022-08-10T04:14:05.564Z,89.02
2022-08-10T04:15:05.482Z,89.59
2022-08-10T04:16:07.432Z,89.31
2022-08-10T04:17:05.329Z,87.11
2022-08-10T04:18:06.543Z,86.73
2022-08-10T04:19:05.165Z,87.30
2022-08-10T04:20:05.089Z,87.49
2022-08-10T04:21:05.013Z,87.97
2022-08-10T04:22:04.931Z,88.54
2022-08-10T04:23:04.853Z,88.54
2022-08-10T04:24:04.775Z,88.64
2022-08-10T04:25:04.701Z,89.21
2022-08-10T04:26:04.617Z,89.21
2022-08-10T04:27:04.540Z,89.59
2022-08-10T04:28:04.462Z,88.26
2022-08-10T04:29:04.385Z,87.78
2022-08-10T04:30:04.304Z,87.78
2022-08-10T04:31:04.225Z,89.21
2022-08-10T04:32:04.153Z,89.69
2022-08-10T04:33:04.071Z,87.87
2022-08-10T04:34:08.530Z,85.93
2022-08-10T04:35:03.917Z,84.88
2022-08-10T04:36:03.832Z,85.73
2022-08-10T04:37:08.626Z,86.30
2022-08-10T04:38:03.677Z,87.93
2022-08-10T04:39:03.600Z,87.83
2022-08-10T04:40:03.518Z,88.59
2022-08-10T04:41:03.446Z,88.40
2022-08-10T04:42:03.366Z,88.69
2022-08-10T04:43:10.411Z,89.93
2022-08-10T04:44:03.204Z,90.69
2022-08-10T04:45:03.133Z,90.59
2022-08-10T04:46:03.050Z,90.69
2022-08-10T04:47:02.981Z,91.17
2022-08-10T04:48:03.323Z,91.98
2022-08-10T04:49:02.815Z,93.70
2022-08-10T04:50:02.734Z,93.70
2022-08-10T04:51:02.662Z,93.79
2022-08-10T04:52:02.591Z,94.17
2022-08-10T04:53:02.503Z,93.22
2022-08-10T04:54:06.941Z,93.41
2022-08-10T04:55:02.344Z,92.83
2022-08-10T04:56:02.264Z,93.17
2022-08-10T04:57:02.189Z,93.70
2022-08-10T04:58:02.107Z,93.70
2022-08-10T04:59:02.037Z,94.56
2022-08-10T05:00:01.952Z,94.98
2022-08-10T05:01:01.951Z,95.03
2022-08-10T05:02:22.590Z,94.65
2022-08-10T05:03:01.719Z,94.56
2022-08-10T05:04:35.130Z,94.03
2022-08-10T05:05:01.560Z,93.74
2022-08-10T05:06:01.554Z,93.26
2022-08-10T05:07:01.402Z,92.88
2022-08-10T05:08:01.325Z,93.07
2022-08-10T05:09:01.247Z,93.46
2022-08-10T05:10:06.608Z,92.97
2022-08-10T05:11:01.092Z,92.21
2022-08-10T05:12:01.014Z,92.12
2022-08-10T05:13:00.935Z,92.45
2022-08-10T05:14:00.862Z,92.45
2022-08-10T05:15:00.776Z,91.59
2022-08-10T05:16:00.700Z,91.78
2022-08-10T05:17:00.619Z,91.40
2022-08-10T05:18:08.087Z,91.69
2022-08-10T05:19:00.465Z,91.59
2022-08-10T05:20:03.757Z,91.21
2022-08-10T05:21:00.312Z,91.21
2022-08-10T05:22:04.424Z,90.54
2022-08-10T05:23:00.155Z,90.92
2022-08-10T05:24:00.083Z,91.02
2022-08-10T05:24:59.994Z,91.11
2022-08-10T05:25:59.917Z,91.02
2022-08-10T05:27:09.486Z,90.92
2022-08-10T05:28:04.296Z,91.11
2022-08-10T05:28:59.683Z,90.30
2022-08-10T05:30:01.520Z,90.49
2022-08-10T05:30:59.527Z,89.82
2022-08-10T05:31:59.446Z,90.11
2022-08-10T05:33:02.591Z,90.11
2022-08-10T05:33:59.292Z,89.34
2022-08-10T05:34:59.215Z,90.59
2022-08-10T05:35:59.131Z,90.30
2022-08-10T05:36:59.056Z,90.30
2022-08-10T05:38:13.460Z,90.59
2022-08-10T05:38:58.899Z,90.59
2022-08-10T05:39:58.856Z,90.20
2022-08-10T05:40:58.744Z,90.39
2022-08-10T05:42:01.058Z,91.06
2022-08-10T05:42:58.590Z,90.53
2022-08-10T05:43:58.508Z,90.63
2022-08-10T05:44:58.432Z,91.02
2022-08-10T05:46:18.652Z,91.39
2022-08-10T05:46:58.276Z,91.59
2022-08-10T05:48:54.646Z,91.88
2022-08-10T05:49:01.144Z,92.25
2022-08-10T05:49:58.042Z,92.93
2022-08-10T05:50:57.965Z,92.35
2022-08-10T05:51:57.887Z,92.07
2022-08-10T05:52:57.811Z,92.64
2022-08-10T05:54:01.893Z,92.59
2022-08-10T05:55:02.599Z,91.63
2022-08-10T05:55:57.580Z,91.83
2022-08-10T05:56:58.430Z,91.16
2022-08-10T05:57:57.424Z,90.87
2022-08-10T05:58:57.339Z,89.81
2022-08-10T06:00:34.195Z,89.72
2022-08-10T06:00:57.275Z,89.62
2022-08-10T06:02:30.767Z,89.81
2022-08-10T06:02:57.028Z,89.72
2022-08-10T06:03:56.950Z,89.72
2022-08-10T06:04:56.879Z,89.62
2022-08-10T06:05:56.804Z,89.48
2022-08-10T06:06:56.720Z,89.67
2022-08-10T06:07:56.672Z,89.00
2022-08-10T06:08:56.566Z,88.04
2022-08-10T06:09:59.777Z,86.55
2022-08-10T06:12:26.487Z,85.02
2022-08-10T06:12:26.565Z,85.98
2022-08-10T06:12:56.814Z,84.83
2022-08-10T06:13:59.789Z,84.26
2022-08-10T06:14:59.835Z,83.87
2022-08-10T06:15:56.021Z,83.92
2022-08-10T06:16:55.947Z,83.92
2022-08-10T06:18:01.550Z,83.63
2022-08-10T06:18:55.792Z,83.34
2022-08-10T06:19:55.710Z,83.05
2022-08-10T06:20:55.635Z,81.52
2022-08-10T06:22:01.144Z,81.43
2022-08-10T06:22:55.477Z,81.04
2022-08-10T06:23:55.404Z,81.33
2022-08-10T06:25:23.118Z,80.99
2022-08-10T06:26:12.074Z,80.60
2022-08-10T06:26:55.174Z,81.08
2022-08-10T06:27:55.095Z,79.36
2022-08-10T06:29:03.735Z,79.64
2022-08-10T06:29:54.938Z,79.45
2022-08-10T06:30:54.864Z,79.64
2022-08-10T06:31:54.790Z,79.64
2022-08-10T06:32:54.706Z,79.21
2022-08-10T06:33:54.630Z,78.92
2022-08-10T06:34:54.554Z,78.25
2022-08-10T06:35:54.475Z,78.44
2022-08-10T06:36:54.461Z,77.95
2022-08-10T06:37:54.323Z,77.67
2022-08-10T06:38:54.395Z,76.52
2022-08-10T06:39:54.225Z,76.42
2022-08-10T06:40:54.098Z,76.17
2022-08-10T06:42:01.372Z,76.37
2022-08-10T06:42:53.937Z,75.79
2022-08-10T06:43:53.860Z,75.70
2022-08-10T06:44:53.788Z,75.70
2022-08-10T06:46:07.696Z,75.40
2022-08-10T06:46:53.631Z,75.31
2022-08-10T06:47:53.550Z,74.93
2022-08-10T06:48:53.481Z,74.87
2022-08-10T06:49:53.397Z,74.48
2022-08-10T06:50:57.968Z,73.81
2022-08-10T06:51:57.195Z,73.33
2022-08-10T06:52:53.173Z,73.04
2022-08-10T06:53:55.071Z,73.43
2022-08-10T06:54:53.020Z,72.99
2022-08-10T06:55:56.643Z,72.50
2022-08-10T06:57:15.059Z,72.02
2022-08-10T06:57:59.864Z,72.02
2022-08-10T06:58:52.712Z,71.93
2022-08-10T06:59:52.633Z,71.73
2022-08-10T07:00:52.580Z,72.31
2022-08-10T07:01:52.482Z,73.02
2022-08-10T07:02:52.408Z,73.02
2022-08-10T07:03:52.328Z,72.64
2022-08-10T07:04:52.253Z,71.87
2022-08-10T07:05:52.175Z,71.96
2022-08-10T07:06:52.103Z,71.61
2022-08-10T07:07:52.030Z,70.07
2022-08-10T07:08:51.949Z,70.27
2022-08-10T07:09:51.872Z,69.79
2022-08-10T07:10:51.800Z,70.11
2022-08-10T07:11:51.717Z,70.59
2022-08-10T07:12:51.645Z,70.40
2022-08-10T07:14:15.696Z,69.73
2022-08-10T07:14:51.515Z,69.34
2022-08-10T07:15:57.258Z,68.19
2022-08-10T07:16:51.343Z,67.32
2022-08-10T07:17:51.263Z,67.74
2022-08-10T07:18:51.194Z,67.45
2022-08-10T07:19:52.177Z,67.26
2022-08-10T07:20:51.040Z,67.07
2022-08-10T07:21:50.959Z,66.97
2022-08-10T07:23:02.603Z,66.58
2022-08-10T07:24:00.030Z,66.52
2022-08-10T07:24:50.736Z,66.52
2022-08-10T07:25:50.659Z,65.94
2022-08-10T07:26:50.587Z,65.56
2022-08-10T07:27:58.563Z,65.75
2022-08-10T07:28:50.434Z,66.94
2022-08-10T07:29:53.378Z,65.69
2022-08-10T07:30:50.280Z,65.01
2022-08-10T07:31:57.096Z,64.73
2022-08-10T07:32:50.131Z,64.73
2022-08-10T07:33:50.053Z,64.86
2022-08-10T07:34:49.983Z,63.41
2022-08-10T07:35:49.906Z,63.70
2022-08-10T07:36:49.830Z,63.21
2022-08-10T07:37:49.756Z,62.63
2022-08-10T07:38:49.682Z,62.57
2022-08-10T07:40:02.552Z,62.09
2022-08-10T07:40:49.534Z,61.64
2022-08-10T07:41:49.456Z,59.52
2022-08-10T07:42:49.383Z,58.97
2022-08-10T07:43:49.307Z,58.10
2022-08-10T07:44:49.234Z,58.10
2022-08-10T07:45:49.155Z,57.81
2022-08-10T07:46:49.086Z,58.10
2022-08-10T07:47:54.553Z,58.22
2022-08-10T07:48:48.934Z,57.06
2022-08-10T07:49:48.862Z,56.58
2022-08-10T07:50:48.793Z,56.77
2022-08-10T07:51:54.474Z,57.09
2022-08-10T07:52:48.644Z,57.67
2022-08-10T07:53:48.562Z,56.32
2022-08-10T07:54:48.489Z,54.51
2022-08-10T07:56:01.787Z,53.93
2022-08-10T07:56:49.440Z,54.13
2022-08-10T07:57:48.272Z,54.03
2022-08-10T07:58:52.024Z,54.32
2022-08-10T07:59:48.122Z,54.03
2022-08-10T08:00:48.051Z,54.22
2022-08-10T08:01:48.106Z,53.83
2022-08-10T08:02:47.903Z,52.00
2022-08-10T08:04:10.853Z,52.22
2022-08-10T08:04:47.759Z,51.83
2022-08-10T08:05:59.054Z,51.93
2022-08-10T08:06:47.616Z,52.41
2022-08-10T08:07:47.537Z,51.66
2022-08-10T08:08:47.464Z,50.21
2022-08-10T08:09:57.762Z,49.46
2022-08-10T08:10:47.317Z,50.24
2022-08-10T08:11:47.247Z,50.14
2022-08-10T08:12:47.172Z,48.03
2022-08-10T08:13:47.100Z,47.94
2022-08-10T08:14:47.027Z,47.26
2022-08-10T08:16:18.750Z,46.66
2022-08-10T08:16:46.882Z,47.04
2022-08-10T08:17:46.809Z,47.04
2022-08-10T08:19:03.842Z,46.17
2022-08-10T08:19:55.318Z,47.14
2022-08-10T08:20:46.600Z,47.91
2022-08-10T08:24:07.377Z,46.56
2022-08-10T08:24:10.070Z,47.04
2022-08-10T08:24:24.107Z,46.46
2022-08-10T08:24:46.301Z,46.46
2022-08-10T08:25:46.229Z,46.48
2022-08-10T08:26:46.173Z,45.90
2022-08-10T08:27:47.874Z,45.34
2022-08-10T08:28:46.018Z,44.47
2022-08-10T08:29:45.948Z,44.96
2022-08-10T08:30:48.923Z,44.09
2022-08-10T08:32:02.144Z,43.99
2022-08-10T08:32:45.726Z,43.79
2022-08-10T08:33:45.655Z,44.27
2022-08-10T08:34:45.587Z,44.67
2022-08-10T08:35:45.517Z,44.47
2022-08-10T08:36:45.441Z,44.20
2022-08-10T08:38:32.172Z,43.62
2022-08-10T08:38:45.300Z,44.01
2022-08-10T08:39:47.369Z,44.49
2022-08-10T08:40:45.157Z,44.03
2022-08-10T08:41:45.087Z,44.13
2022-08-10T08:42:45.010Z,45.00
2022-08-10T08:43:44.941Z,44.05
2022-08-10T08:44:44.871Z,43.35
2022-08-10T08:45:54.033Z,43.27
2022-08-10T08:46:44.726Z,42.79
2022-08-10T08:48:03.202Z,43.27
2022-08-10T08:48:44.588Z,43.27
2022-08-10T08:50:07.958Z,42.89
2022-08-10T08:50:44.447Z,42.21
2022-08-10T08:52:11.376Z,41.14
2022-08-10T08:52:44.301Z,42.02
2022-08-10T08:54:01.087Z,42.50
2022-08-10T08:54:44.163Z,42.03
2022-08-10T08:55:52.359Z,41.43
2022-08-10T08:56:49.577Z,41.55
2022-08-10T08:57:50.330Z,40.77
2022-08-10T08:58:43.882Z,40.58
2022-08-10T08:59:43.811Z,40.67
2022-08-10T09:00:43.741Z,40.66
2022-08-10T09:01:43.694Z,40.85
2022-08-10T09:02:43.598Z,40.95
2022-08-10T09:03:43.529Z,40.97
2022-08-10T09:04:43.456Z,40.56
2022-08-10T09:05:59.790Z,41.24
2022-08-10T09:06:43.316Z,41.82
2022-08-10T09:08:00.207Z,41.92
2022-08-10T09:08:43.176Z,41.92
2022-08-10T09:09:43.112Z,41.33
2022-08-10T09:10:43.039Z,41.43
2022-08-10T09:11:42.970Z,40.87
2022-08-10T09:12:42.896Z,40.87
2022-08-10T09:13:42.830Z,41.06
2022-08-10T09:14:42.759Z,41.77
2022-08-10T09:15:42.689Z,40.69
2022-08-10T09:16:42.619Z,39.34
2022-08-10T09:17:42.550Z,38.75
2022-08-10T09:18:42.477Z,39.14
2022-08-10T09:19:42.409Z,39.72
2022-08-10T09:20:42.338Z,38.48
2022-08-10T09:21:52.335Z,37.90
2022-08-10T09:22:42.200Z,39.36
2022-08-10T09:24:04.409Z,37.60
2022-08-10T09:24:42.069Z,36.93
2022-08-10T09:25:41.993Z,36.52
2022-08-10T09:26:41.919Z,37.20
2022-08-10T09:27:43.222Z,37.30
2022-08-10T09:28:41.786Z,37.99
2022-08-10T09:29:41.714Z,37.80
2022-08-10T09:30:52.224Z,37.12
2022-08-10T09:31:41.578Z,37.12
2022-08-10T09:36:16.604Z,37.32
2022-08-10T09:36:20.691Z,37.20
2022-08-10T09:36:26.168Z,37.01
2022-08-10T09:36:29.730Z,37.32
2022-08-10T09:36:41.793Z,37.10
2022-08-10T09:38:01.658Z,37.10
2022-08-10T09:38:41.091Z,37.01
2022-08-10T09:40:56.913Z,38.29
2022-08-10T09:41:00.368Z,38.87
2022-08-10T09:41:40.975Z,37.04
2022-08-10T09:42:40.830Z,36.36
2022-08-10T09:43:40.748Z,35.57
2022-08-10T09:44:57.067Z,35.25
2022-08-10T09:45:40.614Z,34.97
2022-08-10T09:46:40.545Z,35.64
2022-08-10T09:48:01.829Z,36.13
2022-08-10T09:48:40.401Z,36.61
2022-08-10T09:49:57.826Z,36.61
2022-08-10T09:51:16.387Z,36.71
2022-08-10T09:51:45.731Z,37.59
2022-08-10T09:52:40.128Z,37.32
2022-08-10T09:53:40.057Z,37.14
2022-08-10T09:54:39.988Z,36.36
2022-08-10T09:56:17.667Z,36.07
2022-08-10T09:56:39.856Z,36.38
2022-08-10T09:57:54.782Z,35.68
2022-08-10T09:58:39.713Z,35.68
2022-08-10T10:00:01.446Z,35.58
2022-08-10T10:00:39.584Z,35.68
2022-08-10T10:02:02.868Z,35.66
2022-08-10T10:02:39.440Z,35.88
2022-08-10T10:03:39.410Z,35.78
2022-08-10T10:04:39.305Z,34.12
2022-08-10T10:05:39.236Z,34.32
2022-08-10T10:06:39.165Z,34.90
2022-08-10T10:07:39.106Z,35.39
2022-08-10T10:08:42.701Z,35.39
2022-08-10T10:09:38.966Z,34.61
2022-08-10T10:10:46.547Z,33.83
2022-08-10T10:11:38.825Z,33.73
2022-08-10T10:12:38.760Z,33.62
2022-08-10T10:14:02.195Z,33.81
2022-08-10T10:14:38.628Z,34.03
2022-08-10T10:15:38.559Z,34.61
2022-08-10T10:16:38.485Z,34.80
2022-08-10T10:17:38.533Z,34.70
2022-08-10T10:18:38.355Z,35.49
2022-08-10T10:19:40.770Z,35.49
2022-08-10T10:20:38.217Z,34.32
2022-08-10T10:21:54.694Z,32.97
2022-08-10T10:22:38.077Z,32.87
2022-08-10T10:23:38.016Z,32.20
2022-08-10T10:24:37.940Z,32.50
2022-08-10T10:25:50.721Z,33.09
2022-08-10T10:26:37.809Z,31.92
2022-08-10T10:27:37.941Z,30.85
2022-08-10T10:29:15.357Z,32.02
2022-08-10T10:29:57.449Z,31.92
2022-08-10T10:30:37.534Z,33.18
2022-08-10T10:31:37.463Z,31.63
2022-08-10T10:32:37.621Z,31.90
2022-08-10T10:33:37.332Z,32.79
2022-08-10T10:34:37.262Z,32.97
2022-08-10T10:35:37.193Z,32.87
2022-08-10T10:36:37.127Z,34.24
2022-08-10T10:38:01.128Z,34.43
2022-08-10T10:38:36.997Z,34.14
2022-08-10T10:39:37.054Z,35.11
2022-08-10T10:40:36.854Z,35.11
2022-08-10T10:41:55.872Z,35.11
2022-08-10T10:42:47.140Z,34.82
2022-08-10T10:43:36.653Z,34.72
2022-08-10T10:44:41.551Z,34.53
2022-08-10T10:45:41.655Z,35.68
2022-08-10T10:46:36.443Z,35.70
2022-08-10T10:47:36.495Z,36.38
2022-08-10T10:48:36.314Z,34.12
2022-08-10T10:49:36.243Z,34.12
2022-08-10T10:50:36.171Z,33.93
2022-08-10T10:51:36.109Z,34.42
2022-08-10T10:52:36.042Z,35.10
2022-08-10T10:53:35.969Z,35.88
2022-08-10T10:54:35.902Z,37.34
2022-08-10T10:56:13.386Z,36.55
2022-08-10T10:56:35.766Z,36.08
2022-08-10T10:57:59.458Z,36.18
2022-08-10T10:58:35.634Z,35.89
2022-08-10T10:59:55.448Z,36.08
2022-08-10T11:00:35.495Z,36.65
2022-08-10T11:01:35.462Z,36.26
2022-08-10T11:02:35.371Z,37.24
2022-08-10T11:03:35.373Z,37.14
2022-08-10T11:04:35.224Z,37.16
2022-08-10T11:05:35.154Z,37.45
2022-08-10T11:06:40.530Z,37.26
2022-08-10T11:07:35.204Z,36.47
2022-08-10T11:08:34.947Z,36.55
2022-08-10T11:10:03.806Z,36.07
2022-08-10T11:10:37.456Z,36.36
2022-08-10T11:12:02.085Z,37.02
2022-08-10T11:12:34.678Z,37.34
2022-08-10T11:14:25.530Z,37.02
2022-08-10T11:14:34.540Z,36.54
2022-08-10T11:15:34.475Z,36.44
2022-08-10T11:16:34.403Z,37.12
2022-08-10T11:17:34.364Z,37.22
2022-08-10T11:18:34.268Z,36.34
2022-08-10T11:20:02.815Z,36.54
2022-08-10T11:20:34.134Z,37.02
2022-08-10T11:21:34.063Z,37.41
2022-08-10T11:22:36.766Z,37.99
2022-08-10T11:23:33.960Z,37.99
2022-08-10T11:24:49.103Z,38.40
2022-08-10T11:25:33.794Z,37.34
2022-08-10T11:26:33.721Z,36.85
2022-08-10T11:27:33.715Z,36.38
2022-08-10T11:28:34.984Z,36.96
2022-08-10T11:29:33.517Z,37.06
2022-08-10T11:30:33.448Z,37.16
2022-08-10T11:31:33.389Z,37.06
2022-08-10T11:32:33.309Z,36.96
2022-08-10T11:33:39.316Z,37.45
2022-08-10T11:34:49.125Z,36.28
2022-08-10T11:35:35.094Z,36.47
2022-08-10T11:36:33.039Z,35.89
2022-08-10T11:38:34.209Z,34.72
2022-08-10T11:38:47.203Z,35.02
2022-08-10T11:39:32.845Z,34.92
2022-08-10T11:40:32.764Z,35.60
2022-08-10T11:42:08.022Z,37.37
2022-08-10T11:42:36.233Z,36.12
2022-08-10T11:43:32.603Z,35.93
2022-08-10T11:44:32.496Z,35.28
2022-08-10T11:45:32.425Z,35.18
2022-08-10T11:46:32.360Z,34.03
2022-08-10T11:47:32.293Z,32.55
2022-08-10T11:48:53.692Z,32.43
2022-08-10T11:49:32.155Z,33.02
2022-08-10T11:50:32.087Z,33.90
2022-08-10T11:51:32.021Z,34.48
2022-08-10T11:52:32.099Z,33.39
2022-08-10T11:53:38.801Z,33.29
2022-08-10T11:54:31.826Z,33.01
2022-08-10T11:55:31.751Z,33.69
2022-08-10T11:56:31.683Z,33.98
2022-08-10T11:57:53.557Z,33.31
2022-08-10T11:58:31.553Z,34.97
2022-08-10T11:59:31.483Z,34.58
2022-08-10T12:00:32.406Z,33.31
2022-08-10T12:01:31.347Z,33.12
2022-08-10T12:02:31.325Z,33.12
2022-08-10T12:03:34.567Z,34.19
2022-08-10T12:04:31.144Z,33.61
2022-08-10T12:05:51.695Z,33.14
2022-08-10T12:06:54.354Z,33.72
2022-08-10T12:10:05.627Z,34.03
2022-08-10T12:10:06.914Z,34.40
2022-08-10T12:10:08.808Z,33.83
2022-08-10T12:10:30.742Z,31.98
2022-08-10T12:11:30.672Z,30.42
2022-08-10T12:12:30.605Z,30.41
2022-08-10T12:13:30.538Z,31.09
2022-08-10T12:14:30.475Z,30.90
2022-08-10T12:15:30.406Z,30.99
2022-08-10T12:16:30.342Z,30.41
2022-08-10T12:17:30.272Z,30.41
2022-08-10T12:18:30.206Z,30.00
2022-08-10T12:19:30.141Z,30.38
2022-08-10T12:20:30.073Z,31.45
2022-08-10T12:21:30.005Z,31.25
2022-08-10T12:22:29.941Z,31.25
2022-08-10T12:23:29.872Z,31.54
2022-08-10T12:24:29.804Z,31.85
2022-08-10T12:25:55.724Z,32.34
2022-08-10T12:26:29.675Z,30.99
2022-08-10T12:27:29.602Z,30.60
2022-08-10T12:28:51.396Z,31.48
2022-08-10T12:29:29.472Z,30.99
2022-08-10T12:30:29.416Z,30.13
2022-08-10T12:31:29.341Z,29.33
2022-08-10T12:32:29.274Z,29.33
2022-08-10T12:33:29.204Z,29.53
2022-08-10T12:34:29.137Z,29.52
2022-08-10T12:35:29.071Z,29.81
2022-08-10T12:36:29.009Z,30.29
2022-08-10T12:37:28.937Z,29.91
2022-08-10T12:38:28.873Z,30.00
2022-08-10T12:39:28.917Z,30.00
2022-08-10T12:40:35.457Z,30.68
2022-08-10T12:41:44.319Z,31.46
2022-08-10T12:43:13.368Z,30.58
2022-08-10T12:44:07.519Z,30.88
2022-08-10T12:44:35.741Z,31.28
2022-08-10T12:45:28.403Z,31.30
2022-08-10T12:46:28.342Z,30.32
2022-08-10T12:47:28.272Z,28.94
2022-08-10T12:48:31.225Z,29.92
2022-08-10T12:49:28.141Z,29.71
2022-08-10T12:50:32.831Z,30.39
2022-08-10T12:51:28.014Z,30.78